ADDS METAR Data INFO
IDs: Format: Raw Decoded Include TAF

Data at: 0059 UTC 22 Oct 2017

PASA 220056Z AUTO 35019G29KT 3/4SM -SN FEW013 SCT030 BKN036 M02/M05 A2938 RMK AO2 PK WND 35029/0050 SNE26B49 SLP952 P0000 T10171050 FZRANO $
PASA 220036Z AUTO 02017G25KT 10SM FEW009 SCT031 SCT045 M02/M07 A2938 RMK AO2 PK WND 02026/0028 SNE26 P0000 FZRANO $
PASA 212056Z AUTO 01014G28KT 7SM -SN BKN039 BKN049 M02/M07 A2938 RMK AO2 PK WND 02028/2051 SNE04B52 SLP952 P0000 60000 T10221072 53006 FZRANO $
PASA 211959Z AUTO 01012KT 9SM -SN SCT006 BKN042 OVC075 M03/M05 A2937 RMK AO2 P0000 FZRANO $
PASA 211956Z AUTO 01013G22KT 2 1/2SM -SN BR SCT006 BKN018 OVC075 M03/M05 A2937 RMK AO2 CIG 013V025 SLP948 P0000 T10331050 FZRANO $
PASA 211944Z AUTO 01020G25KT 1/2SM -SN FZFG SCT007 BKN014 OVC022 M03/M04 A2936 RMK AO2 P0000 FZRANO $
PASA 211940Z AUTO 36016G22KT 3/4SM -SN BR SCT010 SCT015 OVC023 M02/M04 A2937 RMK AO2 P0000 FZRANO $
PASA 211933Z AUTO 35017KT 1 3/4SM -SN FEW011 BKN021 OVC032 M02/M05 A2937 RMK AO2 VIS 3/4V5 P0000 FZRANO $
PASA 211905Z AUTO 35020G24KT 1 3/4SM -SN BR FEW009 BKN024 OVC031 M02/M04 A2937 RMK AO2 VIS 1/2V5 P0000 FZRANO $
PASA 211856Z AUTO 01015G20KT 6SM -SN BR FEW006 SCT014 OVC024 M02/M04 A2937 RMK AO2 PK WND 34032/1832 SLP946 P0000 T10221044 FZRANO $
PASA 211854Z AUTO 36013KT 9SM -SN FEW006 SCT015 OVC024 M02/M04 A2936 RMK AO2 PK WND 34032/1832 P0000 FZRANO $
PASA 211847Z AUTO 02009KT 2SM -SN BR SCT006 BKN015 OVC031 M03/M04 A2936 RMK AO2 PK WND 34032/1832 P0000 FZRANO $
PASA 211831Z AUTO 35024G30KT 1SM -SN BR BKN012 BKN018 OVC026 M02/M04 A2937 RMK AO2 PK WND 35031/1829 P0000 FZRANO $
PASA 211743Z AUTO 01015KT 10SM UP SCT011 BKN018 BKN037 M02/M04 A2936 RMK AO2 PK WND 34030/1709 UPB35SNE35 P0000 FZRANO $
PASA 211736Z AUTO 02015G23KT 9SM UP SCT009 BKN014 BKN034 M02/M04 A2936 RMK AO2 PK WND 34030/1709 UPB35SNE35 P0000 FZRANO $
PASA 211713Z AUTO 35022G30KT 8SM -SN FEW024 SCT040 BKN048 M02/M07 A2936 RMK AO2 PK WND 34030/1709 P0000 FZRANO $
PASA 211626Z AUTO 02016G23KT 9SM UP FEW013 BKN048 OVC060 M02/M04 A2936 RMK AO2 PK WND 02026/1602 UPB16SNE16 P0000 FZRANO $
PASA 211556Z AUTO 02018G24KT 4SM -SN BR FEW005 BKN016 OVC024 M02/M04 A2936 RMK AO2 PK WND 01031/1528 SLP943 P0000 T10221039 FZRANO $
PASA 211541Z AUTO 01018G28KT 1 1/4SM -SN BR OVC008 M03/M04 A2936 RMK AO2 PK WND 01031/1528 CIG 004V012 P0000 FZRANO $
PASA 211537Z AUTO 01021G31KT 3/4SM -SN BR OVC008 M03/M04 A2936 RMK AO2 PK WND 01031/1528 CIG 004V012 P0000 FZRANO $
PASA 211528Z AUTO 36024G31KT 1SM -SN BR FEW004 BKN008 OVC011 M03/M04 A2936 RMK AO2 PK WND 01031/1528 P0000 FZRANO $
PASA 211522Z AUTO 01019G27KT 1 1/4SM -SN BR SCT006 BKN010 OVC022 M03/M04 A2936 RMK AO2 PK WND 36031/1505 CIG 008V012 P0000 FZRANO $
PASA 211509Z AUTO 01021G31KT 1SM -SN BR FEW005 BKN008 OVC015 M03/M04 A2937 RMK AO2 PK WND 36031/1505 CIG 006V012 P0000 FZRANO $
PASA 211500Z AUTO 01013KT 1 1/4SM -SN BR SCT007 BKN010 OVC025 M03/M04 A2936 RMK AO2 P0000 FZRANO $
PASA 211456Z AUTO 36013KT 3/4SM -SN BR BKN007 BKN010 OVC020 M03/M04 A2936 RMK AO2 CIG 004V009 SLP946 P0000 60000 T10281044 53001 FZRANO $
PASA 211448Z AUTO 36017G24KT 1SM -SN BR SCT009 BKN021 BKN075 M02/M04 A2937 RMK AO2 VIS 1/2V4 P0000 FZRANO $
PASA 211445Z AUTO 35023KT 2 1/2SM -SN BR SCT009 BKN021 BKN075 M02/M04 A2936 RMK AO2 VIS 1/2V5 P0000 FZRANO $
PASA 211414Z AUTO 36012KT 8SM -SN FEW006 SCT014 BKN036 M03/M05 A2936 RMK AO2 P0000 FZRANO $
PASA 211409Z AUTO 35015G23KT 2SM -SN BR FEW006 BKN014 OVC060 M03/M05 A2936 RMK AO2 P0000 FZRANO $
PASA 211402Z AUTO 35015G24KT 1SM -SN BR SCT008 BKN021 OVC060 M03/M05 A2936 RMK AO2 VIS 1/2V3 P0000 FZRANO $
PASA 211340Z AUTO 34017G23KT 8SM -SN SCT013 BKN049 OVC080 M02/M05 A2936 RMK AO2 PK WND 34026/1259 UPB31E33SNE31B33 P0000 FZRANO $
PASA 211323Z AUTO 34013KT 9SM -SN SCT008 BKN018 OVC080 M03/M05 A2936 RMK AO2 PK WND 34026/1259 P0000 FZRANO $
PASA 211316Z AUTO 35015KT 3SM -SN BR SCT010 BKN018 OVC080 M03/M05 A2936 RMK AO2 PK WND 34026/1259 P0000 FZRANO $
PASA 211256Z AUTO 35014G22KT 7SM -SN SCT008 BKN020 OVC055 M03/M04 A2936 RMK AO2 SNB19 SLP944 P0000 T10281044 FZRANO $
PASA 211249Z AUTO 34018G24KT 3SM -SN BR SCT008 BKN020 OVC049 M03/M04 A2936 RMK AO2 SNB19 P0000 FZRANO $
PASA 211243Z AUTO 35019G24KT 1 1/2SM -SN BR SCT008 BKN026 OVC055 M03/M04 A2936 RMK AO2 VIS 1/2V3 SNB19 CIG 018V040 P0000 FZRANO $
PASA 211234Z AUTO 34018G24KT 1 1/2SM -SN FEW006 BKN049 OVC100 M02/M06 A2936 RMK AO2 SNB19 P0000 FZRANO $
PASA 211156Z AUTO 34017KT 10SM FEW012 SCT025 M03/M06 A2936 RMK AO2 UPB40E55SNE40B43E52 SLP945 P0000 60002 70003 T10281061 11022 21039 51002 FZRANO $
PASA 211145Z AUTO 35019G23KT 9SM -SN FEW012 SCT017 BKN027 M03/M05 A2936 RMK AO2 UPB40E43SNE40B43 P0000 FZRANO $
PASA 211111Z AUTO 34017KT 5SM -SN BR FEW005 SCT014 BKN032 M03/M05 A2936 RMK AO2 P0000 FZRANO $
PASA 211058Z AUTO 35016G25KT 3SM -SN BR SCT005 BKN012 OVC036 M03/M04 A2936 RMK AO2 P0000 FZRANO $
PASA 211056Z AUTO 35017G25KT 1 1/2SM -SN BR SCT005 BKN012 OVC040 M03/M04 A2936 RMK AO2 PK WND 34033/1021 SLP945 P0001 T10331044 FZRANO $
PASA 211054Z AUTO 35018G25KT 1SM -SN BR SCT005 BKN012 OVC024 M03/M04 A2936 RMK AO2 PK WND 34033/1021 P0001 FZRANO $
PASA 211053Z AUTO 34019G25KT 1SM -SN BR BKN005 BKN012 OVC024 M03/M04 A2936 RMK AO2 PK WND 34033/1021 CIG 003V010 P0001 FZRANO $
PASA 211046Z AUTO 35021G32KT 3/4SM -SN BR SCT005 BKN010 OVC024 M03/M04 A2936 RMK AO2 PK WND 34033/1021 CIG 006V018 P0001 FZRANO $
PASA 211044Z AUTO 35020G32KT 1SM -SN BR BKN007 BKN013 OVC024 M03/M04 A2936 RMK AO2 PK WND 34033/1021 CIG 004V010 P0001 FZRANO $
PASA 211039Z AUTO 34029G32KT 1 3/4SM -SN BR SCT007 BKN013 OVC024 M03/M04 A2936 RMK AO2 PK WND 34033/1021 P0000 FZRANO $
PASA 211033Z AUTO 34026G30KT 2 1/2SM -SN BR BKN009 BKN016 OVC026 M03/M04 A2936 RMK AO2 PK WND 34033/1021 CIG 004V013 P0000 FZRANO $
PASA 211019Z AUTO 35024G31KT 3/4SM -SN BR FEW005 BKN009 OVC024 M03/M04 A2936 RMK AO2 PK WND 35031/1015 CIG 007V010 P0000 FZRANO $
PASA 211016Z AUTO 36023G31KT 1 1/4SM -SN BR FEW005 BKN009 OVC024 M03/M04 A2936 RMK AO2 PK WND 35031/1015 CIG 007V012 P0000 FZRANO $
PASA 210954Z AUTO 02020G30KT 1SM -SN BR FEW007 BKN012 OVC025 M03/M04 A2936 RMK AO2 PK WND 02030/0950 SLP943 P0001 T10281044 FZRANO $
PASA 210953Z AUTO 01022G30KT 1SM -SN BR FEW007 BKN012 OVC025 M03/M04 A2936 RMK AO2 PK WND 02030/0950 P0001 FZRANO $
PASA 210947Z AUTO 02020G27KT 1 1/4SM -SN BR BKN010 BKN017 OVC022 M03/M04 A2935 RMK AO2 PK WND 02028/0921 CIG 007V015 P0001 FZRANO $
PASA 210939Z AUTO 02021G27KT 1 3/4SM -SN BR SCT012 BKN019 OVC046 M02/M04 A2935 RMK AO2 PK WND 02028/0921 P0001 FZRANO $
PASA 210929Z AUTO 02017G28KT 2SM -SN BR BKN012 BKN023 OVC050 M02/M04 A2936 RMK AO2 PK WND 02028/0921 P0001 FZRANO $
PASA 210918Z AUTO 35018G25KT 9SM -SN SCT008 BKN023 OVC050 M03/M04 A2935 RMK AO2 P0001 FZRANO $
PASA 210909Z AUTO 36013KT 3SM -SN BR SCT006 BKN012 OVC021 M03/M04 A2936 RMK AO2 P0000 FZRANO $
PASA 210906Z AUTO 01016KT 1 1/4SM -SN BR SCT004 BKN008 OVC012 M03/M04 A2936 RMK AO2 CIG 007V010 P0000 FZRANO $
PASA 210902Z AUTO 01014G21KT 3/4SM -SN BR SCT004 BKN008 OVC012 M03/M04 A2936 RMK AO2 CIG 006V010 P0000 FZRANO $
PASA 210827Z AUTO 36016KT 3SM -SN BR SCT006 BKN011 OVC095 M04/M06 A2937 RMK AO2 PK WND 34035/0758 P0000 FZRANO $
PASA 210819Z AUTO 36011G18KT 1 1/4SM -SN BR SCT006 OVC011 M04/M06 A2936 RMK AO2 PK WND 34035/0758 P0000 FZRANO $
PASA 210816Z AUTO 36012KT 3/4SM -SN BR SCT006 OVC011 M04/M06 A2937 RMK AO2 PK WND 34035/0758 P0000 FZRANO $
PASA 210810Z AUTO 01015KT 1/2SM SN FZFG BKN004 BKN010 OVC015 M04/M06 A2937 RMK AO2 PK WND 34035/0758 P0000 FZRANO $
PASA 210803Z AUTO 36019G35KT 3/4SM -SN BR FEW004 BKN012 OVC030 M03/M06 A2938 RMK AO2 PK WND 34035/0758 P0000 FZRANO $
PASA 210758Z AUTO 34027G35KT 1 3/4SM -SN BKN011 BKN030 OVC070 M03/M06 A2937 RMK AO2 PK WND 34035/0758 CIG 008V022 P0000 FZRANO $
PASA 210756Z AUTO 35026G34KT 2SM -SN SCT011 BKN030 OVC070 M03/M06 A2937 RMK AO2 PK WND 34034/0754 UPB09E11SNB0657E09B42 SLP947 P0000 T10281056 FZRANO $
PASA 210747Z AUTO 34021G30KT 5SM -SN FEW011 BKN030 OVC100 M02/M06 A2936 RMK AO2 PK WND 34030/0744 UPB09E11SNB0657E09B42 P0000 FZRANO $
PASA 210704Z AUTO 36015KT 9SM -SN SCT021 BKN029 OVC100 M02/M05 A2935 RMK AO2 SNB0657 P0000 FZRANO $
PASA 210656Z AUTO 33014KT 10SM FEW018 BKN041 OVC100 M03/M06 A2935 RMK AO2 SNE00 SLP942 P0000 T10281056 FZRANO $
PASA 210556Z AUTO 01017G23KT 9SM -SN SCT008 BKN019 BKN027 M03/M06 A2935 RMK AO2 SLP940 P0000 60001 T10331061 11006 21039 51004 FZRANO $
PASA 210552Z AUTO 01017G23KT 9SM -SN FEW005 BKN015 BKN027 M03/M05 A2934 RMK AO2 CIG 010V023 P0000 FZRANO $
PASA 210545Z AUTO 34014G20KT 2SM -SN BR FEW005 BKN015 OVC055 M03/M05 A2934 RMK AO2 VIS 1/2V5 CIG 010V022 P0000 FZRANO $
PASA 210542Z AUTO 34013KT 1SM -SN BR SCT005 BKN015 OVC055 M03/M06 A2935 RMK AO2 VIS 1/2V5 CIG 010V022 P0000 FZRANO $
PASA 210534Z AUTO 34020G23KT 1 3/4SM -SN BR SCT008 BKN019 OVC047 M03/M06 A2935 RMK AO2 P0000 FZRANO $
PASA 210522Z AUTO 34016G21KT 9SM -SN SCT008 BKN015 OVC055 M03/M06 A2935 RMK AO2 P0000 FZRANO $
PASA 210518Z AUTO 34018G21KT 2SM -SN BR BKN006 BKN014 OVC047 M04/M06 A2935 RMK AO2 CIG 003V009 P0000 FZRANO $
PASA 210514Z AUTO 34018G21KT 1 1/4SM -SN BR SCT006 BKN012 OVC049 M04/M06 A2935 RMK AO2 P0000 FZRANO $
PASA 210501Z AUTO 01017G24KT 3/4SM -SN BR BKN009 BKN028 OVC049 M03/M06 A2935 RMK AO2 CIG 005V017 P0000 FZRANO $
PASA 210451Z AUTO 35017KT 6SM -SN FEW008 BKN033 OVC110 M03/M06 A2935 RMK AO2 P0000 FZRANO $
PASA 210438Z AUTO 35020G24KT 7SM -SN FEW010 BKN018 OVC055 M03/M06 A2934 RMK AO2 CIG 015V025 P0000 FZRANO $
PASA 210423Z AUTO 36013KT 2 1/2SM -SN BR FEW005 BKN015 OVC031 M03/M06 A2935 RMK AO2 P0000 FZRANO $
PASA 210356Z AUTO 35019G23KT 3SM -SN SCT015 BKN023 BKN030 M03/M06 A2933 RMK AO2 PK WND 01027/0306 SLP936 P0000 T10331061 FZRANO $
PASA 210334Z AUTO 36014G25KT 4SM -SN FEW015 SCT021 BKN028 M03/M06 A2933 RMK AO2 PK WND 01027/0306 P0000 FZRANO $
PASA 210326Z AUTO 36017G23KT 6SM -SN FEW016 SCT021 BKN046 M03/M06 A2933 RMK AO2 PK WND 01027/0306 P0000 FZRANO $
PASA 210256Z AUTO 01017G24KT 8SM -SN SCT009 BKN019 OVC055 M03/M04 A2932 RMK AO2 PK WND 01030/0238 CIG 016V029 SLP932 P0001 60001 T10281044 53002 FZRANO $
PASA 210250Z AUTO 01018G26KT 3SM -SN BR SCT006 BKN012 OVC040 M03/M04 A2932 RMK AO2 PK WND 01030/0238 P0001 FZRANO $
PASA 210247Z AUTO 02019G30KT 1SM -SN BR SCT006 BKN012 OVC030 M03/M04 A2932 RMK AO2 PK WND 01030/0238 P0001 FZRANO $
PASA 210243Z AUTO 02018G30KT 3/4SM -SN BR SCT006 BKN019 OVC041 M02/M04 A2932 RMK AO2 PK WND 01030/0238 VIS 1/4V4 P0001 FZRANO $
PASA 210239Z AUTO 02024G30KT 1 1/4SM -SN BR FEW009 BKN019 OVC041 M02/M04 A2932 RMK AO2 PK WND 01030/0238 VIS 1/4V5 P0001 FZRANO $
PASA 210222Z AUTO 02017G26KT 7SM -SN FEW005 BKN016 OVC041 M02/M04 A2931 RMK AO2 PK WND 34026/0214 P0000 FZRANO $
PASA 210215Z AUTO 36017G26KT 320V020 2 1/2SM -SN BR SCT005 BKN014 OVC031 M03/M04 A2930 RMK AO2 PK WND 34026/0214 P0000 FZRANO $
PASA 210212Z AUTO 33011KT 1 1/4SM -SN BR SCT005 BKN008 OVC031 M03/M04 A2931 RMK AO2 P0000 FZRANO $
PASA 210209Z AUTO 33010KT 3/4SM -SN BR SCT005 BKN008 OVC014 M03/M04 A2931 RMK AO2 CIG 006V009 P0000 FZRANO $
PASA 210156Z AUTO 35010KT 1SM -SN BR BKN005 OVC014 M03/M05 A2932 RMK AO2 PK WND 34031/0137 SNB17 CIG 003V008 SLP929 P0000 T10331050 FZRANO $
PASA 210152Z AUTO 35014G29KT 1/2SM SN FZFG BKN005 BKN010 OVC014 M03/M05 A2932 RMK AO2 PK WND 34031/0137 SNB17 CIG 003V008 P0000 FZRANO $
PASA 210142Z AUTO 35024G31KT 1/4SM SN FZFG SCT005 OVC014 M02/M04 A2932 RMK AO2 PK WND 34031/0137 SNB17 P0000 FZRANO $
PASA 210138Z AUTO 35025G31KT 3/4SM -SN BR FEW007 BKN014 OVC026 M02/M04 A2931 RMK AO2 PK WND 34031/0137 SNB17 P0000 FZRANO $
PASA 210130Z AUTO 34021G27KT 3/4SM -SN FEW008 BKN015 OVC026 M02/M05 A2932 RMK AO2 PK WND 32031/0114 SNB17 P0000 FZRANO $
PASA 210128Z AUTO 34018G29KT 3/4SM -SN BKN013 BKN025 OVC034 M02/M05 A2932 RMK AO2 PK WND 32031/0114 VIS 1/2V2 1/2 SNB17 CIG 007V018 P0000 FZRANO $
PASA 210123Z AUTO 33023G31KT 1 3/4SM -SN SCT013 BKN025 BKN036 M01/M04 A2932 RMK AO2 PK WND 32031/0114 SNB17 P0000 FZRANO $
PASA 210103Z AUTO 32026G30KT 10SM SCT028 SCT090 M01/M06 A2932 RMK AO2 PK WND 32030/0102 FZRANO $
PASA 210056Z AUTO 32023G31KT 10SM BKN028 M01/M06 A2932 RMK AO2 PK WND 33035/0026 UPB21E23SNB02E21 SLP930 P0000 T10061061 FZRANO $
PASA 210028Z AUTO 33024G35KT 10SM BKN029 BKN037 BKN044 M01/M06 A2933 RMK AO2 PK WND 33035/0026 UPB21E23SNB02E21 P0000 FZRANO $
PASA 202356Z AUTO 33024G34KT 10SM SCT034 BKN041 BKN049 M01/M06 A2933 RMK AO2 PK WND 35039/2331 UPB15E17B49E51SNB06E15B32E49 SLP934 P0000 60000 T10061061 11006 21028 58002 FZRANO $
PASA 202246Z AUTO 02014G22KT 9SM -SN FEW008 OVC039 M02/M04 A2934 RMK AO2 PK WND 33035/2218 P0000 FZRANO $
PASA 202239Z AUTO 02016G28KT 2SM -SN BR FEW008 SCT019 OVC039 M03/M05 A2935 RMK AO2 PK WND 33035/2218 P0000 FZRANO $
PASA 202236Z AUTO 02020G32KT 1SM -SN FEW008 BKN033 OVC041 M02/M05 A2934 RMK AO2 PK WND 33035/2218 P0000 FZRANO $
PASA 202156Z AUTO 33023G31KT 8SM -SN SCT019 BKN027 BKN033 M01/M04 A2934 RMK AO2 PK WND 34037/2119 SNB11E26B45 SLP936 P0000 T10111044 FZRANO $
PASA 202056Z AUTO 34025G35KT 10SM BKN033 BKN049 M01/M07 A2933 RMK AO2 PK WND 34035/2051 UPB1957E39SNE1957B05E15B21E32 SLP935 P0000 60000 T10111067 56002 FZRANO $
PASA 202013Z AUTO 32021G31KT 9SM -SN SCT025 BKN031 OVC070 M01/M06 A2934 RMK AO2 PK WND 33031/2004 UPB1957E02SNE1957B05 P0000 FZRANO $
PASA 201956Z AUTO 33024G30KT 9SM -SN BKN027 BKN038 OVC065 M01/M05 A2933 RMK AO2 PK WND 35035/1902 UPB42E48SNE42B48 SLP935 P0000 T10111050 FZRANO $
PASA 201939Z AUTO 32023G31KT 8SM -SN SCT020 BKN029 OVC070 M01/M06 A2933 RMK AO2 PK WND 35035/1902 P0000 FZRANO $
PASA 201756Z AUTO 34021G30KT 10SM -SN BKN042 BKN070 M01/M07 A2934 RMK AO2 PK WND 35036/1738 SNB27 SLP938 P0000 60000 T10111072 11011 21028 53002 FZRANO $
PASA 201656Z AUTO 34026G33KT 10SM BKN049 BKN060 M01/M09 A2934 RMK AO2 PK WND 34033/1656 SNE1558 SLP936 P0000 T10111094 FZRANO $
PASA 201556Z AUTO 35024G33KT 9SM -SN FEW026 SCT034 BKN045 M02/M08 A2933 RMK AO2 PK WND 34034/1544 UPB27E33SNE27B45 SLP934 P0000 T10171083 FZRANO $
PASA 201540Z AUTO 35022G26KT 10SM FEW018 BKN030 OVC075 M01/M06 A2933 RMK AO2 PK WND 35026/1540 UPB27E33SNE27 P0000 FZRANO $
PASA 201404Z AUTO 30024G30KT 7SM -SN FEW010 BKN024 OVC037 M02/M04 A2936 RMK AO2 PK WND 30030/1404 P0000 FZRANO $
PASA 201356Z AUTO 31024G29KT 2 1/2SM -SN BR FEW010 SCT016 OVC022 M03/M04 A2936 RMK AO2 PK WND 31030/1343 VIS 1 1/2V5 UPB06E29SNE06B29 SLP945 P0000 T10281039 FZRANO $
PASA 201348Z AUTO 30020G30KT 1SM -SN BR FEW004 BKN013 OVC030 M03/M04 A2937 RMK AO2 PK WND 31030/1343 UPB06E29SNE06B29 P0000 FZRANO $
PASA 201343Z AUTO 30024G30KT 1 1/2SM -SN FEW009 BKN018 OVC030 M02/M05 A2937 RMK AO2 PK WND 31030/1343 UPB06E29SNE06B29 P0000 FZRANO $